sensor_id;sensor_type;location;lat;lon;timestamp;pressure;altitude;pressure_sealevel;temperature;humidity
29825;BME280;16713;52.916;12.834;2024-01-15T00:01:58;98597.50;;;1.55;71.79
29825;BME280;16713;52.916;12.834;2024-01-15T00:04:25;98587.44;;;1.55;72.11
29825;BME280;16713;52.916;12.834;2024-01-15T00:06:51;98582.38;;;1.54;71.30
29825;BME280;16713;52.916;12.834;2024-01-15T00:09:18;98577.38;;;1.56;70.96
29825;BME280;16713;52.916;12.834;2024-01-15T00:11:44;98582.06;;;1.59;71.11
29825;BME280;16713;52.916;12.834;2024-01-15T00:14:11;98568.94;;;1.61;71.39
29825;BME280;16713;52.916;12.834;2024-01-15T00:16:40;98565.41;;;1.57;71.78
29825;BME280;16713;52.916;12.834;2024-01-15T00:19:06;98562.28;;;1.55;71.05
29825;BME280;16713;52.916;12.834;2024-01-15T00:21:33;98566.00;;;1.47;71.39
29825;BME280;16713;52.916;12.834;2024-01-15T00:24:00;98569.97;;;1.53;72.38
29825;BME280;16713;52.916;12.834;2024-01-15T00:26:26;98564.59;;;1.34;71.49
29825;BME280;16713;52.916;12.834;2024-01-15T00:28:52;98574.03;;;1.43;71.15
29825;BME280;16713;52.916;12.834;2024-01-15T00:31:19;98571.63;;;1.38;72.34
29825;BME280;16713;52.916;12.834;2024-01-15T00:33:45;98571.03;;;1.48;72.57
29825;BME280;16713;52.916;12.834;2024-01-15T00:36:12;98582.69;;;1.49;71.97
29825;BME280;16713;52.916;12.834;2024-01-15T00:38:39;98588.84;;;1.49;71.64
29825;BME280;16713;52.916;12.834;2024-01-15T00:41:06;98570.53;;;1.43;71.15
29825;BME280;16713;52.916;12.834;2024-01-15T00:43:32;98567.84;;;1.43;72.58
29825;BME280;16713;52.916;12.834;2024-01-15T00:46:02;98571.91;;;1.52;71.53
29825;BME280;16713;52.916;12.834;2024-01-15T00:48:29;98577.25;;;1.49;71.27
29825;BME280;16713;52.916;12.834;2024-01-15T00:50:56;98564.06;;;1.47;70.61
29825;BME280;16713;52.916;12.834;2024-01-15T00:53:22;98573.63;;;1.41;70.64
29825;BME280;16713;52.916;12.834;2024-01-15T00:55:49;98554.78;;;1.48;71.38
29825;BME280;16713;52.916;12.834;2024-01-15T00:58:15;98565.63;;;1.48;70.71
29825;BME280;16713;52.916;12.834;2024-01-15T01:00:42;98555.44;;;1.42;71.44
29825;BME280;16713;52.916;12.834;2024-01-15T01:03:09;98556.59;;;1.41;72.42
29825;BME280;16713;52.916;12.834;2024-01-15T01:05:35;98550.38;;;1.40;71.62
29825;BME280;16713;52.916;12.834;2024-01-15T01:08:02;98551.41;;;1.32;71.07
29825;BME280;16713;52.916;12.834;2024-01-15T01:10:28;98557.69;;;1.36;71.74
29825;BME280;16713;52.916;12.834;2024-01-15T01:12:55;98555.00;;;1.40;71.20
29825;BME280;16713;52.916;12.834;2024-01-15T01:15:21;98550.94;;;1.49;71.21
29825;BME280;16713;52.916;12.834;2024-01-15T01:17:48;98554.88;;;1.52;71.08
29825;BME280;16713;52.916;12.834;2024-01-15T01:20:15;98550.88;;;1.46;71.23
29825;BME280;16713;52.916;12.834;2024-01-15T01:22:44;98541.31;;;1.52;71.89
29825;BME280;16713;52.916;12.834;2024-01-15T01:25:11;98537.53;;;1.56;71.52
29825;BME280;16713;52.916;12.834;2024-01-15T01:27:37;98536.34;;;1.54;70.96
29825;BME280;16713;52.916;12.834;2024-01-15T01:30:04;98526.72;;;1.37;69.48
29825;BME280;16713;52.916;12.834;2024-01-15T01:32:31;98529.88;;;1.39;70.56
29825;BME280;16713;52.916;12.834;2024-01-15T01:34:58;98538.03;;;1.43;70.84
29825;BME280;16713;52.916;12.834;2024-01-15T01:37:24;98528.13;;;1.50;71.19
29825;BME280;16713;52.916;12.834;2024-01-15T01:39:51;98535.91;;;1.52;70.57
29825;BME280;16713;52.916;12.834;2024-01-15T01:42:17;98519.75;;;1.36;69.94
29825;BME280;16713;52.916;12.834;2024-01-15T01:44:44;98512.09;;;1.42;71.00
29825;BME280;16713;52.916;12.834;2024-01-15T01:47:10;98515.72;;;1.49;71.07
29825;BME280;16713;52.916;12.834;2024-01-15T01:49:37;98508.25;;;1.43;69.86
29825;BME280;16713;52.916;12.834;2024-01-15T01:52:05;98497.72;;;1.38;70.85
29825;BME280;16713;52.916;12.834;2024-01-15T01:54:33;98500.84;;;1.40;69.69
29825;BME280;16713;52.916;12.834;2024-01-15T01:57:02;98487.91;;;1.30;69.98
29825;BME280;16713;52.916;12.834;2024-01-15T01:59:30;98490.38;;;1.38;69.63
29825;BME280;16713;52.916;12.834;2024-01-15T02:01:57;98485.09;;;1.45;70.81
29825;BME280;16713;52.916;12.834;2024-01-15T02:04:24;98481.50;;;1.41;71.05
29825;BME280;16713;52.916;12.834;2024-01-15T02:06:51;98472.63;;;1.41;70.43
29825;BME280;16713;52.916;12.834;2024-01-15T02:09:18;98481.16;;;1.43;70.42
29825;BME280;16713;52.916;12.834;2024-01-15T02:11:48;98477.19;;;1.37;70.07
29825;BME280;16713;52.916;12.834;2024-01-15T02:14:15;98468.59;;;1.31;69.61
29825;BME280;16713;52.916;12.834;2024-01-15T02:16:41;98460.63;;;1.19;70.05
29825;BME280;16713;52.916;12.834;2024-01-15T02:19:14;98449.72;;;1.16;71.18
29825;BME280;16713;52.916;12.834;2024-01-15T02:21:41;98462.97;;;1.21;71.21
29825;BME280;16713;52.916;12.834;2024-01-15T02:24:07;98455.69;;;1.25;69.44
29825;BME280;16713;52.916;12.834;2024-01-15T02:26:34;98449.00;;;1.19;70.09
29825;BME280;16713;52.916;12.834;2024-01-15T02:29:03;98444.09;;;1.24;69.11
29825;BME280;16713;52.916;12.834;2024-01-15T02:31:29;98442.16;;;1.25;69.57
29825;BME280;16713;52.916;12.834;2024-01-15T02:33:56;98439.09;;;1.26;70.90
29825;BME280;16713;52.916;12.834;2024-01-15T02:36:23;98429.03;;;1.27;70.00
29825;BME280;16713;52.916;12.834;2024-01-15T02:38:49;98437.84;;;1.20;70.48
29825;BME280;16713;52.916;12.834;2024-01-15T02:41:16;98449.28;;;1.33;70.54
29825;BME280;16713;52.916;12.834;2024-01-15T02:43:42;98423.22;;;1.25;69.10
29825;BME280;16713;52.916;12.834;2024-01-15T02:46:09;98431.72;;;1.27;70.65
29825;BME280;16713;52.916;12.834;2024-01-15T02:48:35;98413.75;;;1.15;69.63
29825;BME280;16713;52.916;12.834;2024-01-15T02:51:02;98403.75;;;1.19;70.88
29825;BME280;16713;52.916;12.834;2024-01-15T02:53:29;98413.78;;;1.19;71.12
29825;BME280;16713;52.916;12.834;2024-01-15T02:55:55;98401.41;;;1.18;71.03
29825;BME280;16713;52.916;12.834;2024-01-15T02:58:22;98419.91;;;1.12;70.06
29825;BME280;16713;52.916;12.834;2024-01-15T03:00:48;98410.97;;;1.12;70.81
29825;BME280;16713;52.916;12.834;2024-01-15T03:03:15;98413.75;;;1.15;69.93
29825;BME280;16713;52.916;12.834;2024-01-15T03:05:41;98414.16;;;1.17;69.30
29825;BME280;16713;52.916;12.834;2024-01-15T03:08:08;98408.38;;;1.19;70.86
29825;BME280;16713;52.916;12.834;2024-01-15T03:10:34;98404.41;;;1.13;70.03
29825;BME280;16713;52.916;12.834;2024-01-15T03:13:01;98394.84;;;1.19;69.55
29825;BME280;16713;52.916;12.834;2024-01-15T03:15:27;98396.84;;;1.22;70.37
29825;BME280;16713;52.916;12.834;2024-01-15T03:17:53;98409.97;;;1.20;69.27
29825;BME280;16713;52.916;12.834;2024-01-15T03:20:20;98405.28;;;1.17;70.03
29825;BME280;16713;52.916;12.834;2024-01-15T03:22:46;98397.22;;;1.20;68.89
29825;BME280;16713;52.916;12.834;2024-01-15T03:25:13;98405.38;;;1.24;70.85
29825;BME280;16713;52.916;12.834;2024-01-15T03:27:39;98396.88;;;1.25;69.43
29825;BME280;16713;52.916;12.834;2024-01-15T03:30:06;98385.47;;;1.13;68.41
29825;BME280;16713;52.916;12.834;2024-01-15T03:32:33;98380.34;;;1.30;69.83
29825;BME280;16713;52.916;12.834;2024-01-15T03:35:00;98388.16;;;1.35;69.07
29825;BME280;16713;52.916;12.834;2024-01-15T03:37:27;98397.53;;;1.41;68.50
29825;BME280;16713;52.916;12.834;2024-01-15T03:39:53;98399.50;;;1.41;69.82
29825;BME280;16713;52.916;12.834;2024-01-15T03:42:20;98392.91;;;1.42;69.67
29825;BME280;16713;52.916;12.834;2024-01-15T03:44:46;98387.09;;;1.17;68.26
29825;BME280;16713;52.916;12.834;2024-01-15T03:47:12;98382.22;;;1.26;69.14
29825;BME280;16713;52.916;12.834;2024-01-15T03:49:39;98390.28;;;1.23;69.48
29825;BME280;16713;52.916;12.834;2024-01-15T03:52:05;98383.63;;;1.17;69.54
29825;BME280;16713;52.916;12.834;2024-01-15T03:54:32;98385.88;;;1.15;69.84
29825;BME280;16713;52.916;12.834;2024-01-15T03:56:58;98388.38;;;1.23;70.86
29825;BME280;16713;52.916;12.834;2024-01-15T03:59:26;98396.00;;;1.18;70.83
29825;BME280;16713;52.916;12.834;2024-01-15T04:01:52;98393.41;;;1.25;70.68
29825;BME280;16713;52.916;12.834;2024-01-15T04:04:19;98387.28;;;1.28;69.26
29825;BME280;16713;52.916;12.834;2024-01-15T04:06:45;98384.94;;;1.26;70.82
29825;BME280;16713;52.916;12.834;2024-01-15T04:09:13;98384.34;;;1.36;69.79
29825;BME280;16713;52.916;12.834;2024-01-15T04:11:39;98383.91;;;1.34;68.88
29825;BME280;16713;52.916;12.834;2024-01-15T04:14:06;98390.16;;;1.38;68.13
29825;BME280;16713;52.916;12.834;2024-01-15T04:16:33;98384.34;;;1.36;68.39
29825;BME280;16713;52.916;12.834;2024-01-15T04:18:59;98382.09;;;1.42;68.60
29825;BME280;16713;52.916;12.834;2024-01-15T04:21:26;98373.16;;;1.41;69.22
29825;BME280;16713;52.916;12.834;2024-01-15T04:23:52;98374.38;;;1.44;69.21
29825;BME280;16713;52.916;12.834;2024-01-15T04:26:19;98383.59;;;1.39;69.84
29825;BME280;16713;52.916;12.834;2024-01-15T04:28:45;98386.63;;;1.34;68.22
29825;BME280;16713;52.916;12.834;2024-01-15T04:31:23;98383.22;;;1.41;67.97
29825;BME280;16713;52.916;12.834;2024-01-15T04:33:50;98372.28;;;1.34;69.94
29825;BME280;16713;52.916;12.834;2024-01-15T04:36:17;98377.50;;;1.46;69.50
29825;BME280;16713;52.916;12.834;2024-01-15T04:38:44;98378.94;;;1.40;68.84
29825;BME280;16713;52.916;12.834;2024-01-15T04:41:12;98378.91;;;1.36;69.13
29825;BME280;16713;52.916;12.834;2024-01-15T04:43:39;98371.84;;;1.32;70.32
29825;BME280;16713;52.916;12.834;2024-01-15T04:46:06;98369.56;;;1.34;69.99
29825;BME280;16713;52.916;12.834;2024-01-15T04:48:33;98372.47;;;1.22;69.50
29825;BME280;16713;52.916;12.834;2024-01-15T04:50:59;98363.72;;;1.32;70.51
29825;BME280;16713;52.916;12.834;2024-01-15T04:53:26;98361.81;;;1.32;68.65
29825;BME280;16713;52.916;12.834;2024-01-15T04:55:53;98349.72;;;1.26;70.43
29825;BME280;16713;52.916;12.834;2024-01-15T04:58:19;98350.09;;;1.25;71.12
29825;BME280;16713;52.916;12.834;2024-01-15T05:00:46;98336.13;;;1.23;70.33
29825;BME280;16713;52.916;12.834;2024-01-15T05:03:12;98345.06;;;1.27;70.20
29825;BME280;16713;52.916;12.834;2024-01-15T05:05:39;98337.59;;;1.17;69.76
29825;BME280;16713;52.916;12.834;2024-01-15T05:08:05;98338.31;;;1.14;69.94
29825;BME280;16713;52.916;12.834;2024-01-15T05:10:32;98339.25;;;1.25;71.04
29825;BME280;16713;52.916;12.834;2024-01-15T05:12:58;98338.53;;;1.28;69.79
29825;BME280;16713;52.916;12.834;2024-01-15T05:15:24;98328.81;;;1.27;70.29
29825;BME280;16713;52.916;12.834;2024-01-15T05:17:51;98340.56;;;1.34;70.68
29825;BME280;16713;52.916;12.834;2024-01-15T05:20:17;98333.94;;;1.32;69.99
29825;BME280;16713;52.916;12.834;2024-01-15T05:22:44;98346.59;;;1.24;70.63
29825;BME280;16713;52.916;12.834;2024-01-15T05:25:11;98341.75;;;1.37;69.92
29825;BME280;16713;52.916;12.834;2024-01-15T05:27:37;98345.63;;;1.36;69.33
29825;BME280;16713;52.916;12.834;2024-01-15T05:30:04;98351.47;;;1.38;69.10
29825;BME280;16713;52.916;12.834;2024-01-15T05:32:32;98360.84;;;1.44;69.32
29825;BME280;16713;52.916;12.834;2024-01-15T05:34:58;98351.84;;;1.40;69.22
29825;BME280;16713;52.916;12.834;2024-01-15T05:37:25;98317.69;;;1.32;69.10
29825;BME280;16713;52.916;12.834;2024-01-15T05:39:51;98342.50;;;1.34;70.19
29825;BME280;16713;52.916;12.834;2024-01-15T05:42:18;98347.13;;;1.33;69.97
29825;BME280;16713;52.916;12.834;2024-01-15T05:44:44;98342.06;;;1.32;68.64
29825;BME280;16713;52.916;12.834;2024-01-15T05:47:11;98351.19;;;1.46;69.02
29825;BME280;16713;52.916;12.834;2024-01-15T05:49:37;98349.56;;;1.42;70.15
29825;BME280;16713;52.916;12.834;2024-01-15T05:52:05;98342.91;;;1.36;69.58
29825;BME280;16713;52.916;12.834;2024-01-15T05:54:31;98329.31;;;1.32;68.98
29825;BME280;16713;52.916;12.834;2024-01-15T05:56:58;98331.34;;;1.39;69.38
29825;BME280;16713;52.916;12.834;2024-01-15T05:59:24;98336.34;;;1.37;68.14
29825;BME280;16713;52.916;12.834;2024-01-15T06:01:51;98339.84;;;1.37;68.37
29825;BME280;16713;52.916;12.834;2024-01-15T06:04:18;98332.88;;;1.36;70.06
29825;BME280;16713;52.916;12.834;2024-01-15T06:06:45;98346.34;;;1.33;68.94
29825;BME280;16713;52.916;12.834;2024-01-15T06:09:11;98337.38;;;1.29;69.34
29825;BME280;16713;52.916;12.834;2024-01-15T06:11:38;98341.31;;;1.31;68.30
29825;BME280;16713;52.916;12.834;2024-01-15T06:14:04;98350.63;;;1.34;68.60
29825;BME280;16713;52.916;12.834;2024-01-15T06:16:31;98337.56;;;1.39;69.19
29825;BME280;16713;52.916;12.834;2024-01-15T06:18:57;98368.59;;;1.45;70.20
29825;BME280;16713;52.916;12.834;2024-01-15T06:21:24;98351.09;;;1.39;68.41
29825;BME280;16713;52.916;12.834;2024-01-15T06:23:50;98369.38;;;1.46;69.44
29825;BME280;16713;52.916;12.834;2024-01-15T06:26:17;98369.38;;;1.46;68.08
29825;BME280;16713;52.916;12.834;2024-01-15T06:28:44;98370.09;;;1.43;67.78
29825;BME280;16713;52.916;12.834;2024-01-15T06:31:10;98382.31;;;1.33;69.69
29825;BME280;16713;52.916;12.834;2024-01-15T06:33:37;98380.22;;;1.46;69.17
29825;BME280;16713;52.916;12.834;2024-01-15T06:36:05;98385.94;;;1.41;70.21
29825;BME280;16713;52.916;12.834;2024-01-15T06:38:32;98388.38;;;1.49;70.35
29825;BME280;16713;52.916;12.834;2024-01-15T06:40:58;98384.78;;;1.42;70.13
29825;BME280;16713;52.916;12.834;2024-01-15T06:43:25;98382.09;;;1.42;70.27
29825;BME280;16713;52.916;12.834;2024-01-15T06:45:51;98379.69;;;1.37;70.70
29825;BME280;16713;52.916;12.834;2024-01-15T06:48:18;98379.25;;;1.35;69.27
29825;BME280;16713;52.916;12.834;2024-01-15T06:50:45;98379.56;;;1.30;70.03
29825;BME280;16713;52.916;12.834;2024-01-15T06:53:11;98384.06;;;1.22;70.89
29825;BME280;16713;52.916;12.834;2024-01-15T06:55:38;98368.97;;;1.21;70.86
29825;BME280;16713;52.916;12.834;2024-01-15T06:58:05;98368.63;;;1.23;70.28
29825;BME280;16713;52.916;12.834;2024-01-15T07:00:31;98374.34;;;1.18;70.47
29825;BME280;16713;52.916;12.834;2024-01-15T07:02:58;98386.78;;;1.22;70.41
29825;BME280;16713;52.916;12.834;2024-01-15T07:05:25;98390.16;;;1.16;71.09
29825;BME280;16713;52.916;12.834;2024-01-15T07:07:51;98395.28;;;1.21;70.23
29825;BME280;16713;52.916;12.834;2024-01-15T07:10:18;98388.66;;;1.18;70.87
29825;BME280;16713;52.916;12.834;2024-01-15T07:12:44;98388.31;;;1.20;70.38
29825;BME280;16713;52.916;12.834;2024-01-15T07:15:11;98388.59;;;1.15;72.13
29825;BME280;16713;52.916;12.834;2024-01-15T07:17:38;98395.09;;;1.10;71.41
29825;BME280;16713;52.916;12.834;2024-01-15T07:20:07;98393.94;;;1.11;70.44
29825;BME280;16713;52.916;12.834;2024-01-15T07:22:37;98391.25;;;1.11;70.05
29825;BME280;16713;52.916;12.834;2024-01-15T07:25:04;98392.41;;;1.10;70.73
29825;BME280;16713;52.916;12.834;2024-01-15T07:27:31;98405.81;;;1.26;70.34
29825;BME280;16713;52.916;12.834;2024-01-15T07:29:58;98408.81;;;1.21;70.29
29825;BME280;16713;52.916;12.834;2024-01-15T07:32:28;98405.81;;;1.26;71.24
29825;BME280;16713;52.916;12.834;2024-01-15T07:34:55;98410.78;;;1.24;70.28
29825;BME280;16713;52.916;12.834;2024-01-15T07:37:21;98415.56;;;1.30;70.07
29825;BME280;16713;52.916;12.834;2024-01-15T07:39:49;98417.50;;;1.30;70.30
29825;BME280;16713;52.916;12.834;2024-01-15T07:42:16;98424.03;;;1.29;69.79
29825;BME280;16713;52.916;12.834;2024-01-15T07:44:42;98431.44;;;1.32;69.44
29825;BME280;16713;52.916;12.834;2024-01-15T07:47:09;98426.81;;;1.32;69.30
29825;BME280;16713;52.916;12.834;2024-01-15T07:49:35;98427.16;;;1.31;70.10
29825;BME280;16713;52.916;12.834;2024-01-15T07:52:02;98424.63;;;1.41;69.79
29825;BME280;16713;52.916;12.834;2024-01-15T07:54:31;98431.69;;;1.46;68.65
29825;BME280;16713;52.916;12.834;2024-01-15T07:57:00;98430.00;;;1.38;69.75
29825;BME280;16713;52.916;12.834;2024-01-15T07:59:27;98423.06;;;1.40;68.76
29825;BME280;16713;52.916;12.834;2024-01-15T08:01:54;98428.25;;;1.49;68.00
29825;BME280;16713;52.916;12.834;2024-01-15T08:04:21;98432.06;;;1.44;69.51
29825;BME280;16713;52.916;12.834;2024-01-15T08:06:48;98434.06;;;1.51;68.16
29825;BME280;16713;52.916;12.834;2024-01-15T08:09:15;98421.69;;;1.50;68.68
29825;BME280;16713;52.916;12.834;2024-01-15T08:11:42;98426.56;;;1.41;68.55
29825;BME280;16713;52.916;12.834;2024-01-15T08:14:10;98427.47;;;1.48;68.15
29825;BME280;16713;52.916;12.834;2024-01-15T08:16:37;98433.03;;;1.59;67.43
29825;BME280;16713;52.916;12.834;2024-01-15T08:19:04;98433.38;;;1.54;68.53
29825;BME280;16713;52.916;12.834;2024-01-15T08:21:31;98434.81;;;1.48;68.66
29825;BME280;16713;52.916;12.834;2024-01-15T08:24:02;98430.91;;;1.45;67.81
29825;BME280;16713;52.916;12.834;2024-01-15T08:26:29;98445.25;;;1.46;68.34
29825;BME280;16713;52.916;12.834;2024-01-15T08:28:56;98446.38;;;1.45;69.17
29825;BME280;16713;52.916;12.834;2024-01-15T08:31:23;98448.78;;;1.50;68.74
29825;BME280;16713;52.916;12.834;2024-01-15T08:33:50;98453.47;;;1.53;69.49
29825;BME280;16713;52.916;12.834;2024-01-15T08:36:18;98446.19;;;1.57;69.69
29825;BME280;16713;52.916;12.834;2024-01-15T08:38:44;98461.22;;;1.54;69.29
29825;BME280;16713;52.916;12.834;2024-01-15T08:41:11;98472.66;;;1.67;70.25
29825;BME280;16713;52.916;12.834;2024-01-15T08:43:37;98453.09;;;1.54;69.22
29825;BME280;16713;52.916;12.834;2024-01-15T08:46:03;98462.16;;;1.62;69.81
29825;BME280;16713;52.916;12.834;2024-01-15T08:48:30;98460.50;;;1.57;68.97
29825;BME280;16713;52.916;12.834;2024-01-15T08:50:57;98450.81;;;1.56;70.90
29825;BME280;16713;52.916;12.834;2024-01-15T08:53:23;98440.66;;;1.50;69.68
29825;BME280;16713;52.916;12.834;2024-01-15T08:55:50;98443.19;;;1.39;69.50
29825;BME280;16713;52.916;12.834;2024-01-15T08:58:17;98440.13;;;1.41;70.38
29825;BME280;16713;52.916;12.834;2024-01-15T09:00:44;98441.97;;;1.37;70.51
29825;BME280;16713;52.916;12.834;2024-01-15T09:03:10;98448.97;;;1.38;70.25
29825;BME280;16713;52.916;12.834;2024-01-15T09:05:37;98461.84;;;1.44;69.58
29825;BME280;16713;52.916;12.834;2024-01-15T09:08:04;98454.19;;;1.50;71.59
29825;BME280;16713;52.916;12.834;2024-01-15T09:10:30;98459.69;;;1.53;69.40
29825;BME280;16713;52.916;12.834;2024-01-15T09:12:57;98466.66;;;1.54;69.74
29825;BME280;16713;52.916;12.834;2024-01-15T09:15:23;98459.59;;;1.50;70.15
29825;BME280;16713;52.916;12.834;2024-01-15T09:17:50;98450.31;;;1.51;69.70
29825;BME280;16713;52.916;12.834;2024-01-15T09:20:17;98454.63;;;1.52;70.46
29825;BME280;16713;52.916;12.834;2024-01-15T09:22:44;98451.78;;;1.45;69.53
29825;BME280;16713;52.916;12.834;2024-01-15T09:25:11;98451.06;;;1.48;70.36
29825;BME280;16713;52.916;12.834;2024-01-15T09:27:38;98458.94;;;1.56;70.33
29825;BME280;16713;52.916;12.834;2024-01-15T09:30:07;98468.03;;;1.68;69.30
29825;BME280;16713;52.916;12.834;2024-01-15T09:32:34;98455.69;;;1.70;68.81
29825;BME280;16713;52.916;12.834;2024-01-15T09:35:01;98465.38;;;1.71;69.73
29825;BME280;16713;52.916;12.834;2024-01-15T09:37:28;98456.41;;;1.67;69.34
29825;BME280;16713;52.916;12.834;2024-01-15T09:40:13;98469.72;;;1.76;68.55
29825;BME280;16713;52.916;12.834;2024-01-15T09:42:41;98483.69;;;1.78;69.03
29825;BME280;16713;52.916;12.834;2024-01-15T09:45:09;98456.09;;;1.72;69.82
29825;BME280;16713;52.916;12.834;2024-01-15T09:47:37;98470.28;;;1.62;68.83
29825;BME280;16713;52.916;12.834;2024-01-15T09:50:09;98471.47;;;1.65;68.71
29825;BME280;16713;52.916;12.834;2024-01-15T09:52:36;98468.25;;;1.59;68.65
29825;BME280;16713;52.916;12.834;2024-01-15T09:55:03;98472.25;;;1.65;69.85
29825;BME280;16713;52.916;12.834;2024-01-15T09:57:32;98477.69;;;1.65;69.39
29825;BME280;16713;52.916;12.834;2024-01-15T10:00:01;98477.13;;;1.56;68.38
29825;BME280;16713;52.916;12.834;2024-01-15T10:02:30;98477.75;;;1.69;69.15
29825;BME280;16713;52.916;12.834;2024-01-15T10:04:57;98493.38;;;1.79;70.00
29825;BME280;16713;52.916;12.834;2024-01-15T10:07:25;98483.31;;;1.79;67.95
29825;BME280;16713;52.916;12.834;2024-01-15T10:09:52;98471.59;;;1.72;67.70
29825;BME280;16713;52.916;12.834;2024-01-15T10:12:20;98483.94;;;1.69;69.36
29825;BME280;16713;52.916;12.834;2024-01-15T10:14:47;98487.22;;;1.82;67.67
29825;BME280;16713;52.916;12.834;2024-01-15T10:17:15;98487.66;;;1.84;69.01
29825;BME280;16713;52.916;12.834;2024-01-15T10:19:42;98490.19;;;1.73;67.93
29825;BME280;16713;52.916;12.834;2024-01-15T10:22:14;98480.19;;;1.77;68.76
29825;BME280;16713;52.916;12.834;2024-01-15T10:24:51;98484.06;;;1.76;67.45
29825;BME280;16713;52.916;12.834;2024-01-15T10:27:17;98488.91;;;1.90;66.99
29825;BME280;16713;52.916;12.834;2024-01-15T10:29:44;98490.00;;;1.85;67.04
29825;BME280;16713;52.916;12.834;2024-01-15T10:32:11;98498.25;;;1.92;68.38
29825;BME280;16713;52.916;12.834;2024-01-15T10:34:38;98494.31;;;1.90;67.79
29825;BME280;16713;52.916;12.834;2024-01-15T10:37:07;98496.38;;;1.96;68.63
29825;BME280;16713;52.916;12.834;2024-01-15T10:39:34;98489.25;;;1.88;66.96
29825;BME280;16713;52.916;12.834;2024-01-15T10:42:01;98500.72;;;2.01;67.46
29825;BME280;16713;52.916;12.834;2024-01-15T10:44:28;98499.34;;;1.88;66.36
29825;BME280;16713;52.916;12.834;2024-01-15T10:46:56;98497.22;;;2.00;66.58
29825;BME280;16713;52.916;12.834;2024-01-15T10:49:23;98503.56;;;2.11;67.34
29825;BME280;16713;52.916;12.834;2024-01-15T10:51:57;98503.09;;;2.06;67.71
29825;BME280;16713;52.916;12.834;2024-01-15T10:54:26;98511.78;;;2.15;67.63
29825;BME280;16713;52.916;12.834;2024-01-15T10:56:53;98514.91;;;2.17;66.65
29825;BME280;16713;52.916;12.834;2024-01-15T10:59:22;98507.97;;;2.19;67.61
29825;BME280;16713;52.916;12.834;2024-01-15T11:01:52;98498.47;;;2.06;66.37
29825;BME280;16713;52.916;12.834;2024-01-15T11:04:23;98507.59;;;2.21;66.43
29825;BME280;16713;52.916;12.834;2024-01-15T11:06:54;98517.94;;;2.12;66.93
29825;BME280;16713;52.916;12.834;2024-01-15T11:09:23;98511.72;;;2.11;65.99
29825;BME280;16713;52.916;12.834;2024-01-15T11:12:06;98515.38;;;2.22;66.34
29825;BME280;16713;52.916;12.834;2024-01-15T11:14:35;98512.97;;;2.17;66.16
29825;BME280;16713;52.916;12.834;2024-01-15T11:17:02;98516.84;;;2.16;66.41
29825;BME280;16713;52.916;12.834;2024-01-15T11:19:36;98515.38;;;2.22;65.19
29825;BME280;16713;52.916;12.834;2024-01-15T11:22:03;98510.69;;;2.19;65.45
29825;BME280;16713;52.916;12.834;2024-01-15T11:24:37;98504.38;;;2.12;66.28
29825;BME280;16713;52.916;12.834;2024-01-15T11:27:05;98511.78;;;2.15;65.93
29825;BME280;16713;52.916;12.834;2024-01-15T11:29:36;98515.66;;;2.17;66.53
29825;BME280;16713;52.916;12.834;2024-01-15T11:32:08;98516.41;;;2.14;66.46
29825;BME280;16713;52.916;12.834;2024-01-15T11:34:54;98528.47;;;2.17;66.59
29825;BME280;16713;52.916;12.834;2024-01-15T11:37:26;98523.16;;;2.01;66.82
29825;BME280;16713;52.916;12.834;2024-01-15T11:39:54;98525.53;;;2.03;66.10
29825;BME280;16713;52.916;12.834;2024-01-15T11:42:22;98532.75;;;1.95;66.40
29825;BME280;16713;52.916;12.834;2024-01-15T11:44:49;98526.75;;;2.05;67.33
29825;BME280;16713;52.916;12.834;2024-01-15T11:47:31;98536.38;;;2.03;67.81
29825;BME280;16713;52.916;12.834;2024-01-15T11:50:03;98530.84;;;1.96;67.21
29825;BME280;16713;52.916;12.834;2024-01-15T11:52:36;98535.72;;;1.87;68.31
29825;BME280;16713;52.916;12.834;2024-01-15T11:55:19;98540.03;;;1.91;68.60
29825;BME280;16713;52.916;12.834;2024-01-15T11:57:52;98545.72;;;2.05;68.25
29825;BME280;16713;52.916;12.834;2024-01-15T12:00:22;98542.34;;;1.89;68.64
29825;BME280;16713;52.916;12.834;2024-01-15T12:02:49;98548.06;;;1.84;68.45
29825;BME280;16713;52.916;12.834;2024-01-15T12:05:18;98544.03;;;1.97;68.54
29825;BME280;16713;52.916;12.834;2024-01-15T12:07:47;98542.88;;;1.76;69.76
29825;BME280;16713;52.916;12.834;2024-01-15T12:10:19;98541.41;;;1.78;70.01
29825;BME280;16713;52.916;12.834;2024-01-15T12:13:14;98542.16;;;1.79;68.54
29825;BME280;16713;52.916;12.834;2024-01-15T12:15:42;98542.16;;;1.79;70.28
29825;BME280;16713;52.916;12.834;2024-01-15T12:18:15;98554.09;;;1.97;68.75
29825;BME280;16713;52.916;12.834;2024-01-15T12:20:43;98559.34;;;1.86;68.10
29825;BME280;16713;52.916;12.834;2024-01-15T12:23:10;98555.84;;;1.86;69.15
29825;BME280;16713;52.916;12.834;2024-01-15T12:25:37;98550.06;;;1.87;70.14
29825;BME280;16713;52.916;12.834;2024-01-15T12:28:05;98560.53;;;1.89;69.80
29825;BME280;16713;52.916;12.834;2024-01-15T12:30:33;98567.34;;;2.02;69.10
29825;BME280;16713;52.916;12.834;2024-01-15T12:33:02;98565.94;;;2.11;68.73
29825;BME280;16713;52.916;12.834;2024-01-15T12:35:30;98574.50;;;2.13;68.79
29825;BME280;16713;52.916;12.834;2024-01-15T12:37:59;98575.78;;;2.19;67.14
29825;BME280;16713;52.916;12.834;2024-01-15T12:40:26;98579.63;;;2.18;66.56
29825;BME280;16713;52.916;12.834;2024-01-15T12:42:53;98570.88;;;2.06;66.98
29825;BME280;16713;52.916;12.834;2024-01-15T12:45:19;98580.09;;;2.24;66.18
29825;BME280;16713;52.916;12.834;2024-01-15T12:47:46;98582.28;;;2.15;66.20
29825;BME280;16713;52.916;12.834;2024-01-15T12:50:13;98588.91;;;2.17;67.69
29825;BME280;16713;52.916;12.834;2024-01-15T12:52:46;98590.06;;;2.16;67.18
29825;BME280;16713;52.916;12.834;2024-01-15T12:55:13;98591.09;;;2.08;66.79
29825;BME280;16713;52.916;12.834;2024-01-15T12:57:39;98592.84;;;2.20;66.77
29825;BME280;16713;52.916;12.834;2024-01-15T13:00:06;98597.84;;;2.18;66.05
29825;BME280;16713;52.916;12.834;2024-01-15T13:02:40;98601.91;;;2.31;66.89